This is the latest recevied weather packets stored in our database for station/object W5ALL-WX. If no packets are shown the sender has not sent any weather packets the latest 10 day(s).
| Time | Temp. | Humidity | Pressure | Rain* | Wind** | Luminosity | Snow |
|---|---|---|---|---|---|---|---|
| 1777600683 | 17.22° C | 55% | 1011.9 hPa | 0 mm | - | - | - |
| 1777600383 | 17.22° C | 55% | 1011.9 hPa | 0 mm | - | - | - |
| 1777581332 | 20.56° C | 34% | 1012.1 hPa | 0 mm | - | - | - |
| 1777581032 | 20.56° C | 33% | 1012 hPa | 0 mm | - | - | - |
| 1777580132 | 21.11° C | 32% | 1012.2 hPa | 0 mm | - | - | - |
| 1777579832 | 21.11° C | 32% | 1012.1 hPa | 0 mm | - | - | - |
| 1777579532 | 20.56° C | 34% | 1012.1 hPa | 0 mm | - | - | - |
| 1777579232 | 20.56° C | 34% | 1012.2 hPa | 0 mm | - | - | - |
| 1777578332 | 20.56° C | 33% | 1012.7 hPa | 0 mm | - | - | - |
| 1777578036 | 20.56° C | 35% | 1012.7 hPa | 0 mm | - | - | - |
| 1777577732 | 20° C | 36% | 1012.7 hPa | 0 mm | - | - | - |
| 1777577432 | 20° C | 37% | 1012.7 hPa | 0 mm | - | - | - |
| 1777577132 | 20° C | 36% | 1012.8 hPa | 0 mm | - | - | - |
| 1777576832 | 20° C | 37% | 1012.8 hPa | 0 mm | - | - | - |
| 1777576232 | 20° C | 36% | 1012.9 hPa | 0 mm | - | - | - |
| 1777575932 | 20° C | 36% | 1012.9 hPa | 0 mm | - | - | - |
| 1777575632 | 20° C | 35% | 1013.1 hPa | 0 mm | - | - | - |
| 1777573832 | 20° C | 34% | 1012.9 hPa | 0 mm | - | - | - |
| 1777573232 | 20° C | 34% | 1013.3 hPa | 0 mm | - | - | - |
| 1777572632 | 20° C | 34% | 1013.4 hPa | 0 mm | - | - | - |
| 1777572332 | 20° C | 34% | 1013.4 hPa | 0 mm | - | - | - |
| 1777572032 | 20° C | 33% | 1013.4 hPa | 0 mm | - | - | - |
| 1777571732 | 20.56° C | 31% | 1013.4 hPa | 0 mm | - | - | - |
| 1777571132 | 20.56° C | 27% | 1013.4 hPa | 0 mm | - | - | - |
| 1777570532 | 20.56° C | 26% | 1013.5 hPa | 0 mm | - | - | - |
* Rain latest hour (hover to see other rain measurements)
** Current wind speed in m/s (hover to see current wind gust speed)